sensor_id;sensor_type;location;lat;lon;timestamp;temperature;humidity
11772;DHT22;12556;55.748;13.194;2023-04-03T00:01:36;-0.60;99.90
11772;DHT22;12556;55.748;13.194;2023-04-03T00:04:04;-0.50;99.90
11772;DHT22;12556;55.748;13.194;2023-04-03T00:06:31;-0.50;99.90
11772;DHT22;12556;55.748;13.194;2023-04-03T00:08:58;-0.50;99.90
11772;DHT22;12556;55.748;13.194;2023-04-03T00:11:25;-0.40;99.90
11772;DHT22;12556;55.748;13.194;2023-04-03T00:13:54;-0.40;99.90
11772;DHT22;12556;55.748;13.194;2023-04-03T00:16:20;-0.40;99.90
11772;DHT22;12556;55.748;13.194;2023-04-03T00:18:47;-0.40;99.90
11772;DHT22;12556;55.748;13.194;2023-04-03T00:21:14;-0.40;99.90
11772;DHT22;12556;55.748;13.194;2023-04-03T00:23:42;-0.30;99.90
11772;DHT22;12556;55.748;13.194;2023-04-03T00:26:08;-0.40;99.90
11772;DHT22;12556;55.748;13.194;2023-04-03T00:28:35;-0.40;99.90
11772;DHT22;12556;55.748;13.194;2023-04-03T00:31:04;-0.40;99.90
11772;DHT22;12556;55.748;13.194;2023-04-03T00:33:30;-0.40;99.90
11772;DHT22;12556;55.748;13.194;2023-04-03T00:35:57;-0.40;99.90
11772;DHT22;12556;55.748;13.194;2023-04-03T00:38:24;-0.40;99.90
11772;DHT22;12556;55.748;13.194;2023-04-03T00:40:51;-0.50;99.90
11772;DHT22;12556;55.748;13.194;2023-04-03T00:43:20;-0.50;99.90
11772;DHT22;12556;55.748;13.194;2023-04-03T00:45:49;-0.40;99.90
11772;DHT22;12556;55.748;13.194;2023-04-03T00:48:20;-0.50;99.90
11772;DHT22;12556;55.748;13.194;2023-04-03T00:50:48;-0.50;99.90
11772;DHT22;12556;55.748;13.194;2023-04-03T00:53:19;-0.50;99.90
11772;DHT22;12556;55.748;13.194;2023-04-03T00:55:49;-0.50;99.90
11772;DHT22;12556;55.748;13.194;2023-04-03T00:58:18;-0.50;99.90
11772;DHT22;12556;55.748;13.194;2023-04-03T01:00:49;-0.50;99.90
11772;DHT22;12556;55.748;13.194;2023-04-03T01:03:20;-0.50;99.90
11772;DHT22;12556;55.748;13.194;2023-04-03T01:05:47;-0.50;99.90
11772;DHT22;12556;55.748;13.194;2023-04-03T01:08:14;-0.50;99.90
11772;DHT22;12556;55.748;13.194;2023-04-03T01:10:41;-0.50;99.90
11772;DHT22;12556;55.748;13.194;2023-04-03T01:13:20;-0.60;99.90
11772;DHT22;12556;55.748;13.194;2023-04-03T01:15:47;-0.50;99.90
11772;DHT22;12556;55.748;13.194;2023-04-03T01:18:14;-0.60;99.90
11772;DHT22;12556;55.748;13.194;2023-04-03T01:24:18;-0.70;99.90
11772;DHT22;12556;55.748;13.194;2023-04-03T01:26:48;-0.70;99.90
11772;DHT22;12556;55.748;13.194;2023-04-03T01:29:16;-0.70;99.90
11772;DHT22;12556;55.748;13.194;2023-04-03T01:31:55;-0.70;99.90
11772;DHT22;12556;55.748;13.194;2023-04-03T01:34:23;-0.80;99.90
11772;DHT22;12556;55.748;13.194;2023-04-03T01:36:50;-0.80;99.90
11772;DHT22;12556;55.748;13.194;2023-04-03T01:39:18;-0.80;99.90
11772;DHT22;12556;55.748;13.194;2023-04-03T01:41:45;-0.80;99.90
11772;DHT22;12556;55.748;13.194;2023-04-03T01:44:12;-0.80;99.90
11772;DHT22;12556;55.748;13.194;2023-04-03T01:46:39;-0.80;99.90
11772;DHT22;12556;55.748;13.194;2023-04-03T01:49:09;-0.80;99.90
11772;DHT22;12556;55.748;13.194;2023-04-03T01:51:36;-0.80;99.90
11772;DHT22;12556;55.748;13.194;2023-04-03T01:54:04;-0.80;99.90
11772;DHT22;12556;55.748;13.194;2023-04-03T01:56:31;-0.80;99.90
11772;DHT22;12556;55.748;13.194;2023-04-03T01:58:57;-0.80;99.90
11772;DHT22;12556;55.748;13.194;2023-04-03T02:01:24;-0.90;99.90
11772;DHT22;12556;55.748;13.194;2023-04-03T02:03:52;-0.90;99.90
11772;DHT22;12556;55.748;13.194;2023-04-03T02:06:20;-0.90;99.90
11772;DHT22;12556;55.748;13.194;2023-04-03T02:08:47;-0.90;99.90
11772;DHT22;12556;55.748;13.194;2023-04-03T02:11:14;-1.00;99.90
11772;DHT22;12556;55.748;13.194;2023-04-03T02:13:41;-1.00;99.90
11772;DHT22;12556;55.748;13.194;2023-04-03T02:16:09;-0.90;99.90
11772;DHT22;12556;55.748;13.194;2023-04-03T02:18:37;-1.00;99.90
11772;DHT22;12556;55.748;13.194;2023-04-03T02:21:04;-1.10;99.90
11772;DHT22;12556;55.748;13.194;2023-04-03T02:23:33;-1.10;99.90
11772;DHT22;12556;55.748;13.194;2023-04-03T02:26:05;-1.10;99.90
11772;DHT22;12556;55.748;13.194;2023-04-03T02:28:33;-1.10;99.90
11772;DHT22;12556;55.748;13.194;2023-04-03T02:31:01;-1.20;99.90
11772;DHT22;12556;55.748;13.194;2023-04-03T02:33:28;-1.20;99.90
11772;DHT22;12556;55.748;13.194;2023-04-03T02:35:55;-1.20;99.90
11772;DHT22;12556;55.748;13.194;2023-04-03T02:38:23;-1.20;99.90
11772;DHT22;12556;55.748;13.194;2023-04-03T02:40:52;-1.30;99.90
11772;DHT22;12556;55.748;13.194;2023-04-03T02:43:19;-1.30;99.90
11772;DHT22;12556;55.748;13.194;2023-04-03T02:45:45;-1.30;99.90
11772;DHT22;12556;55.748;13.194;2023-04-03T02:48:12;-1.40;99.90
11772;DHT22;12556;55.748;13.194;2023-04-03T02:50:41;-1.40;99.90
11772;DHT22;12556;55.748;13.194;2023-04-03T02:53:08;-1.40;99.90
11772;DHT22;12556;55.748;13.194;2023-04-03T02:55:35;-1.40;99.90
11772;DHT22;12556;55.748;13.194;2023-04-03T02:58:03;-1.40;99.90
11772;DHT22;12556;55.748;13.194;2023-04-03T03:00:30;-1.50;99.90
11772;DHT22;12556;55.748;13.194;2023-04-03T03:02:57;-1.50;99.90
11772;DHT22;12556;55.748;13.194;2023-04-03T03:05:24;-1.50;99.90
11772;DHT22;12556;55.748;13.194;2023-04-03T03:07:51;-1.50;99.90
11772;DHT22;12556;55.748;13.194;2023-04-03T03:10:18;-1.60;99.90
11772;DHT22;12556;55.748;13.194;2023-04-03T03:12:45;-1.60;99.90
11772;DHT22;12556;55.748;13.194;2023-04-03T03:15:14;-1.70;99.90
11772;DHT22;12556;55.748;13.194;2023-04-03T03:17:41;-1.70;99.90
11772;DHT22;12556;55.748;13.194;2023-04-03T03:20:08;-1.70;99.90
11772;DHT22;12556;55.748;13.194;2023-04-03T03:22:36;-1.70;99.90
11772;DHT22;12556;55.748;13.194;2023-04-03T03:25:03;-1.80;99.90
11772;DHT22;12556;55.748;13.194;2023-04-03T03:27:30;-1.70;99.90
11772;DHT22;12556;55.748;13.194;2023-04-03T03:29:57;-1.80;99.90
11772;DHT22;12556;55.748;13.194;2023-04-03T03:32:25;-1.80;99.90
11772;DHT22;12556;55.748;13.194;2023-04-03T03:34:52;-1.80;99.90
11772;DHT22;12556;55.748;13.194;2023-04-03T03:37:19;-1.90;99.90
11772;DHT22;12556;55.748;13.194;2023-04-03T03:39:46;-1.90;99.90
11772;DHT22;12556;55.748;13.194;2023-04-03T03:42:12;-1.90;99.90
11772;DHT22;12556;55.748;13.194;2023-04-03T03:44:40;-1.90;99.90
11772;DHT22;12556;55.748;13.194;2023-04-03T03:47:07;-1.90;99.90
11772;DHT22;12556;55.748;13.194;2023-04-03T03:49:37;-1.90;99.90
11772;DHT22;12556;55.748;13.194;2023-04-03T03:52:04;-2.00;99.90
11772;DHT22;12556;55.748;13.194;2023-04-03T03:54:31;-2.00;99.90
11772;DHT22;12556;55.748;13.194;2023-04-03T03:56:58;-2.00;99.90
11772;DHT22;12556;55.748;13.194;2023-04-03T03:59:25;-2.00;99.90
11772;DHT22;12556;55.748;13.194;2023-04-03T04:01:52;-2.00;99.90
11772;DHT22;12556;55.748;13.194;2023-04-03T04:04:19;-2.10;99.90
11772;DHT22;12556;55.748;13.194;2023-04-03T04:06:47;-2.10;99.90
11772;DHT22;12556;55.748;13.194;2023-04-03T04:09:14;-2.10;99.90
11772;DHT22;12556;55.748;13.194;2023-04-03T04:11:41;-2.10;99.90
11772;DHT22;12556;55.748;13.194;2023-04-03T04:14:07;-2.10;99.90
11772;DHT22;12556;55.748;13.194;2023-04-03T04:16:35;-2.10;99.90
11772;DHT22;12556;55.748;13.194;2023-04-03T04:19:02;-2.10;99.90
11772;DHT22;12556;55.748;13.194;2023-04-03T04:21:29;-2.10;99.90
11772;DHT22;12556;55.748;13.194;2023-04-03T04:23:57;-2.10;99.90
11772;DHT22;12556;55.748;13.194;2023-04-03T04:26:24;-2.10;99.90
11772;DHT22;12556;55.748;13.194;2023-04-03T04:28:51;-2.10;99.90
11772;DHT22;12556;55.748;13.194;2023-04-03T04:31:18;-2.20;99.90
11772;DHT22;12556;55.748;13.194;2023-04-03T04:33:45;-2.20;99.90
11772;DHT22;12556;55.748;13.194;2023-04-03T04:36:12;-2.20;99.90
11772;DHT22;12556;55.748;13.194;2023-04-03T04:38:40;-2.20;99.90
11772;DHT22;12556;55.748;13.194;2023-04-03T04:41:08;-2.30;99.90
11772;DHT22;12556;55.748;13.194;2023-04-03T04:43:35;-2.30;99.90
11772;DHT22;12556;55.748;13.194;2023-04-03T04:46:03;-2.30;99.90
11772;DHT22;12556;55.748;13.194;2023-04-03T04:48:31;-2.30;99.90
11772;DHT22;12556;55.748;13.194;2023-04-03T04:50:58;-2.30;99.90
11772;DHT22;12556;55.748;13.194;2023-04-03T04:53:25;-2.40;99.90
11772;DHT22;12556;55.748;13.194;2023-04-03T04:55:52;-2.40;99.90
11772;DHT22;12556;55.748;13.194;2023-04-03T04:58:20;-2.40;99.90
11772;DHT22;12556;55.748;13.194;2023-04-03T05:00:47;-2.40;99.90
11772;DHT22;12556;55.748;13.194;2023-04-03T05:03:14;-2.30;99.90
11772;DHT22;12556;55.748;13.194;2023-04-03T05:05:41;-2.30;99.90
11772;DHT22;12556;55.748;13.194;2023-04-03T05:08:08;-2.30;99.90
11772;DHT22;12556;55.748;13.194;2023-04-03T05:10:35;-2.30;99.90
11772;DHT22;12556;55.748;13.194;2023-04-03T05:13:02;-2.30;99.90
11772;DHT22;12556;55.748;13.194;2023-04-03T05:15:30;-2.30;99.90
11772;DHT22;12556;55.748;13.194;2023-04-03T05:17:57;-2.30;99.90
11772;DHT22;12556;55.748;13.194;2023-04-03T05:20:24;-2.30;99.90
11772;DHT22;12556;55.748;13.194;2023-04-03T05:22:51;-2.20;99.90
11772;DHT22;12556;55.748;13.194;2023-04-03T05:25:18;-2.20;99.90
11772;DHT22;12556;55.748;13.194;2023-04-03T05:27:45;-2.10;99.90
11772;DHT22;12556;55.748;13.194;2023-04-03T05:30:12;-2.10;99.90
11772;DHT22;12556;55.748;13.194;2023-04-03T05:32:41;-2.00;99.90
11772;DHT22;12556;55.748;13.194;2023-04-03T05:35:09;-2.00;99.90
11772;DHT22;12556;55.748;13.194;2023-04-03T05:37:36;-1.90;99.90
11772;DHT22;12556;55.748;13.194;2023-04-03T05:40:04;-1.90;99.90
11772;DHT22;12556;55.748;13.194;2023-04-03T05:42:31;-1.80;99.90
11772;DHT22;12556;55.748;13.194;2023-04-03T05:44:58;-1.70;99.90
11772;DHT22;12556;55.748;13.194;2023-04-03T05:47:25;-1.60;99.90
11772;DHT22;12556;55.748;13.194;2023-04-03T05:49:54;-1.60;99.90
11772;DHT22;12556;55.748;13.194;2023-04-03T05:52:25;-1.50;99.90
11772;DHT22;12556;55.748;13.194;2023-04-03T05:54:52;-1.40;99.90
11772;DHT22;12556;55.748;13.194;2023-04-03T05:57:20;-1.30;99.90
11772;DHT22;12556;55.748;13.194;2023-04-03T05:59:47;-1.20;99.90
11772;DHT22;12556;55.748;13.194;2023-04-03T06:02:16;-1.10;99.90
11772;DHT22;12556;55.748;13.194;2023-04-03T06:04:43;-1.00;99.90
11772;DHT22;12556;55.748;13.194;2023-04-03T06:07:14;-0.90;99.90
11772;DHT22;12556;55.748;13.194;2023-04-03T06:09:42;-0.70;99.90
11772;DHT22;12556;55.748;13.194;2023-04-03T06:12:09;-0.60;99.90
11772;DHT22;12556;55.748;13.194;2023-04-03T06:14:37;-0.40;99.90
11772;DHT22;12556;55.748;13.194;2023-04-03T06:17:04;-0.40;99.90
11772;DHT22;12556;55.748;13.194;2023-04-03T06:19:31;-0.20;99.90
11772;DHT22;12556;55.748;13.194;2023-04-03T06:21:58;-0.10;99.90
11772;DHT22;12556;55.748;13.194;2023-04-03T06:24:27;0.10;99.90
11772;DHT22;12556;55.748;13.194;2023-04-03T06:26:54;0.20;99.90
11772;DHT22;12556;55.748;13.194;2023-04-03T06:29:21;0.20;99.90
11772;DHT22;12556;55.748;13.194;2023-04-03T06:31:48;0.30;99.90
11772;DHT22;12556;55.748;13.194;2023-04-03T06:34:15;0.40;99.90
11772;DHT22;12556;55.748;13.194;2023-04-03T06:36:43;0.50;99.90
11772;DHT22;12556;55.748;13.194;2023-04-03T06:39:13;0.70;99.90
11772;DHT22;12556;55.748;13.194;2023-04-03T06:41:42;0.80;99.90
11772;DHT22;12556;55.748;13.194;2023-04-03T06:44:09;1.00;99.90
11772;DHT22;12556;55.748;13.194;2023-04-03T06:46:37;1.10;99.90
11772;DHT22;12556;55.748;13.194;2023-04-03T06:49:04;1.30;99.90
11772;DHT22;12556;55.748;13.194;2023-04-03T06:51:33;1.40;99.90
11772;DHT22;12556;55.748;13.194;2023-04-03T06:54:00;1.50;99.90
11772;DHT22;12556;55.748;13.194;2023-04-03T06:56:28;1.60;99.90
11772;DHT22;12556;55.748;13.194;2023-04-03T06:58:57;1.70;99.90
11772;DHT22;12556;55.748;13.194;2023-04-03T07:01:25;1.80;99.90
11772;DHT22;12556;55.748;13.194;2023-04-03T07:03:53;1.90;99.90
11772;DHT22;12556;55.748;13.194;2023-04-03T07:06:20;2.00;99.90
11772;DHT22;12556;55.748;13.194;2023-04-03T07:08:48;2.10;99.90
11772;DHT22;12556;55.748;13.194;2023-04-03T07:11:15;2.20;99.90
11772;DHT22;12556;55.748;13.194;2023-04-03T07:13:42;2.40;99.90
11772;DHT22;12556;55.748;13.194;2023-04-03T07:16:10;2.40;99.90
11772;DHT22;12556;55.748;13.194;2023-04-03T07:18:38;2.50;99.90
11772;DHT22;12556;55.748;13.194;2023-04-03T07:21:05;2.70;99.90
11772;DHT22;12556;55.748;13.194;2023-04-03T07:23:32;2.80;99.90
11772;DHT22;12556;55.748;13.194;2023-04-03T07:25:59;2.90;99.90
11772;DHT22;12556;55.748;13.194;2023-04-03T07:28:27;3.10;99.90
11772;DHT22;12556;55.748;13.194;2023-04-03T07:30:59;3.20;99.90
11772;DHT22;12556;55.748;13.194;2023-04-03T07:33:27;3.30;99.90
11772;DHT22;12556;55.748;13.194;2023-04-03T07:35:54;3.50;99.90
11772;DHT22;12556;55.748;13.194;2023-04-03T07:38:21;3.60;99.90
11772;DHT22;12556;55.748;13.194;2023-04-03T07:40:49;3.60;99.90
11772;DHT22;12556;55.748;13.194;2023-04-03T07:43:17;3.60;99.90
11772;DHT22;12556;55.748;13.194;2023-04-03T07:45:46;3.70;99.90
11772;DHT22;12556;55.748;13.194;2023-04-03T07:48:16;3.90;99.90
11772;DHT22;12556;55.748;13.194;2023-04-03T07:50:45;4.10;99.90
11772;DHT22;12556;55.748;13.194;2023-04-03T07:53:12;4.20;99.90
11772;DHT22;12556;55.748;13.194;2023-04-03T07:55:39;4.30;99.90
11772;DHT22;12556;55.748;13.194;2023-04-03T07:58:10;4.50;99.90
11772;DHT22;12556;55.748;13.194;2023-04-03T08:00:37;4.70;99.90
11772;DHT22;12556;55.748;13.194;2023-04-03T08:03:05;4.90;99.90
11772;DHT22;12556;55.748;13.194;2023-04-03T08:05:36;4.90;99.90
11772;DHT22;12556;55.748;13.194;2023-04-03T08:08:05;5.10;99.90
11772;DHT22;12556;55.748;13.194;2023-04-03T08:10:33;5.30;99.90
11772;DHT22;12556;55.748;13.194;2023-04-03T08:13:00;5.30;99.90
11772;DHT22;12556;55.748;13.194;2023-04-03T08:15:27;5.40;99.90
11772;DHT22;12556;55.748;13.194;2023-04-03T08:17:54;5.50;99.90
11772;DHT22;12556;55.748;13.194;2023-04-03T08:20:21;5.70;99.90
11772;DHT22;12556;55.748;13.194;2023-04-03T08:22:48;5.90;99.70
11772;DHT22;12556;55.748;13.194;2023-04-03T08:25:17;6.10;99.80
11772;DHT22;12556;55.748;13.194;2023-04-03T08:27:44;6.20;99.40
11772;DHT22;12556;55.748;13.194;2023-04-03T08:30:12;6.10;98.90
11772;DHT22;12556;55.748;13.194;2023-04-03T08:32:39;6.10;98.60
11772;DHT22;12556;55.748;13.194;2023-04-03T08:35:08;6.10;98.10
11772;DHT22;12556;55.748;13.194;2023-04-03T08:37:35;6.10;98.00
11772;DHT22;12556;55.748;13.194;2023-04-03T08:40:03;6.20;97.60
11772;DHT22;12556;55.748;13.194;2023-04-03T08:42:39;6.20;97.30
11772;DHT22;12556;55.748;13.194;2023-04-03T08:45:12;6.40;97.20
11772;DHT22;12556;55.748;13.194;2023-04-03T08:47:42;6.50;96.90
11772;DHT22;12556;55.748;13.194;2023-04-03T08:50:15;6.50;96.40
11772;DHT22;12556;55.748;13.194;2023-04-03T08:52:46;6.50;96.20
11772;DHT22;12556;55.748;13.194;2023-04-03T08:55:22;6.60;95.60
11772;DHT22;12556;55.748;13.194;2023-04-03T08:57:59;6.70;95.20
11772;DHT22;12556;55.748;13.194;2023-04-03T09:00:29;6.50;94.50
11772;DHT22;12556;55.748;13.194;2023-04-03T09:02:57;6.60;95.00
11772;DHT22;12556;55.748;13.194;2023-04-03T09:05:33;6.70;94.20
11772;DHT22;12556;55.748;13.194;2023-04-03T09:08:09;6.70;93.90
11772;DHT22;12556;55.748;13.194;2023-04-03T09:10:38;6.70;93.20
11772;DHT22;12556;55.748;13.194;2023-04-03T09:13:13;6.60;92.80
11772;DHT22;12556;55.748;13.194;2023-04-03T09:15:45;6.70;92.60
11772;DHT22;12556;55.748;13.194;2023-04-03T09:18:16;6.60;92.10
11772;DHT22;12556;55.748;13.194;2023-04-03T09:20:49;6.70;92.10
11772;DHT22;12556;55.748;13.194;2023-04-03T09:23:24;6.80;92.00
11772;DHT22;12556;55.748;13.194;2023-04-03T09:25:56;6.90;92.20
11772;DHT22;12556;55.748;13.194;2023-04-03T09:28:25;7.20;92.10
11772;DHT22;12556;55.748;13.194;2023-04-03T09:30:53;7.40;91.50
11772;DHT22;12556;55.748;13.194;2023-04-03T09:33:21;7.40;91.00
11772;DHT22;12556;55.748;13.194;2023-04-03T09:35:48;7.60;90.40
11772;DHT22;12556;55.748;13.194;2023-04-03T09:38:20;7.70;90.10
11772;DHT22;12556;55.748;13.194;2023-04-03T09:40:48;7.80;90.00
11772;DHT22;12556;55.748;13.194;2023-04-03T09:43:22;7.80;89.60
11772;DHT22;12556;55.748;13.194;2023-04-03T09:45:51;7.80;89.50
11772;DHT22;12556;55.748;13.194;2023-04-03T09:48:20;8.20;89.20
11772;DHT22;12556;55.748;13.194;2023-04-03T09:50:57;8.40;87.40
11772;DHT22;12556;55.748;13.194;2023-04-03T09:53:36;8.30;85.10
11772;DHT22;12556;55.748;13.194;2023-04-03T09:56:05;8.20;83.80
11772;DHT22;12556;55.748;13.194;2023-04-03T09:58:47;8.10;83.60
11772;DHT22;12556;55.748;13.194;2023-04-03T10:01:25;8.20;84.00
11772;DHT22;12556;55.748;13.194;2023-04-03T10:04:05;8.40;83.30
11772;DHT22;12556;55.748;13.194;2023-04-03T10:06:34;8.30;83.10
11772;DHT22;12556;55.748;13.194;2023-04-03T10:09:04;8.30;81.60
11772;DHT22;12556;55.748;13.194;2023-04-03T10:11:31;8.20;80.80
11772;DHT22;12556;55.748;13.194;2023-04-03T10:13:59;8.40;79.80
11772;DHT22;12556;55.748;13.194;2023-04-03T10:16:34;8.50;78.60
11772;DHT22;12556;55.748;13.194;2023-04-03T10:19:16;8.50;78.00
11772;DHT22;12556;55.748;13.194;2023-04-03T10:21:48;8.70;77.40
11772;DHT22;12556;55.748;13.194;2023-04-03T10:24:21;9.10;76.40
11772;DHT22;12556;55.748;13.194;2023-04-03T10:26:54;9.50;75.70
11772;DHT22;12556;55.748;13.194;2023-04-03T10:29:39;9.60;75.40
11772;DHT22;12556;55.748;13.194;2023-04-03T10:32:39;9.50;76.50
11772;DHT22;12556;55.748;13.194;2023-04-03T10:35:16;9.90;75.90
11772;DHT22;12556;55.748;13.194;2023-04-03T10:37:55;9.90;75.00
11772;DHT22;12556;55.748;13.194;2023-04-03T10:40:30;9.50;73.20
11772;DHT22;12556;55.748;13.194;2023-04-03T10:43:04;9.30;73.20
11772;DHT22;12556;55.748;13.194;2023-04-03T10:45:56;9.30;71.70
11772;DHT22;12556;55.748;13.194;2023-04-03T10:48:37;9.60;72.50
11772;DHT22;12556;55.748;13.194;2023-04-03T10:51:14;9.80;72.40
11772;DHT22;12556;55.748;13.194;2023-04-03T10:53:47;10.20;71.10
11772;DHT22;12556;55.748;13.194;2023-04-03T10:56:21;10.50;70.10
11772;DHT22;12556;55.748;13.194;2023-04-03T10:58:52;10.50;68.60
11772;DHT22;12556;55.748;13.194;2023-04-03T11:01:26;10.20;68.90
11772;DHT22;12556;55.748;13.194;2023-04-03T11:03:59;10.00;68.30
11772;DHT22;12556;55.748;13.194;2023-04-03T11:06:34;10.00;68.10
11772;DHT22;12556;55.748;13.194;2023-04-03T11:09:07;9.90;68.30
11772;DHT22;12556;55.748;13.194;2023-04-03T11:11:39;10.10;67.50
11772;DHT22;12556;55.748;13.194;2023-04-03T11:14:11;10.20;67.00
11772;DHT22;12556;55.748;13.194;2023-04-03T11:16:45;10.30;66.40
11772;DHT22;12556;55.748;13.194;2023-04-03T11:19:18;10.50;67.00
11772;DHT22;12556;55.748;13.194;2023-04-03T11:21:52;10.90;66.80
11772;DHT22;12556;55.748;13.194;2023-04-03T11:24:24;10.90;65.60
11772;DHT22;12556;55.748;13.194;2023-04-03T11:26:54;10.90;65.00
11772;DHT22;12556;55.748;13.194;2023-04-03T11:29:24;10.80;64.50
11772;DHT22;12556;55.748;13.194;2023-04-03T11:32:09;11.00;64.20
11772;DHT22;12556;55.748;13.194;2023-04-03T11:34:43;11.00;63.60
11772;DHT22;12556;55.748;13.194;2023-04-03T11:37:17;11.20;63.40
11772;DHT22;12556;55.748;13.194;2023-04-03T11:39:53;11.60;63.50
11772;DHT22;12556;55.748;13.194;2023-04-03T11:42:30;12.00;62.80
11772;DHT22;12556;55.748;13.194;2023-04-03T11:48:09;12.70;61.80
11772;DHT22;12556;55.748;13.194;2023-04-03T11:50:55;12.90;60.70
11772;DHT22;12556;55.748;13.194;2023-04-03T11:53:29;12.70;59.50
11772;DHT22;12556;55.748;13.194;2023-04-03T11:55:58;12.80;60.00
11772;DHT22;12556;55.748;13.194;2023-04-03T11:58:27;13.10;59.40
11772;DHT22;12556;55.748;13.194;2023-04-03T12:01:00;13.30;58.80
11772;DHT22;12556;55.748;13.194;2023-04-03T12:10:13;13.50;57.90
11772;DHT22;12556;55.748;13.194;2023-04-03T12:12:41;13.50;57.10
11772;DHT22;12556;55.748;13.194;2023-04-03T12:21:19;13.50;56.80
11772;DHT22;12556;55.748;13.194;2023-04-03T12:24:01;13.70;56.60
11772;DHT22;12556;55.748;13.194;2023-04-03T12:26:35;14.00;55.50
11772;DHT22;12556;55.748;13.194;2023-04-03T12:29:13;14.00;55.20
11772;DHT22;12556;55.748;13.194;2023-04-03T12:31:49;14.00;54.70
11772;DHT22;12556;55.748;13.194;2023-04-03T12:34:33;13.80;54.00
11772;DHT22;12556;55.748;13.194;2023-04-03T12:37:09;14.10;53.70
11772;DHT22;12556;55.748;13.194;2023-04-03T12:39:55;14.10;53.10
11772;DHT22;12556;55.748;13.194;2023-04-03T12:43:01;13.80;53.00
11772;DHT22;12556;55.748;13.194;2023-04-03T12:45:40;13.90;52.60
11772;DHT22;12556;55.748;13.194;2023-04-03T12:48:13;13.70;52.50
11772;DHT22;12556;55.748;13.194;2023-04-03T12:50:41;13.90;52.50
11772;DHT22;12556;55.748;13.194;2023-04-03T12:53:13;13.90;52.10
11772;DHT22;12556;55.748;13.194;2023-04-03T12:55:42;14.20;52.00
11772;DHT22;12556;55.748;13.194;2023-04-03T12:58:21;14.30;51.80
11772;DHT22;12556;55.748;13.194;2023-04-03T13:01:00;14.50;50.90
11772;DHT22;12556;55.748;13.194;2023-04-03T13:03:27;14.70;50.70
11772;DHT22;12556;55.748;13.194;2023-04-03T13:05:59;14.90;50.70
11772;DHT22;12556;55.748;13.194;2023-04-03T13:08:27;14.90;50.00
11772;DHT22;12556;55.748;13.194;2023-04-03T13:10:57;14.50;50.60
11772;DHT22;12556;55.748;13.194;2023-04-03T13:13:27;14.50;50.40
11772;DHT22;12556;55.748;13.194;2023-04-03T13:15:54;14.50;49.90
11772;DHT22;12556;55.748;13.194;2023-04-03T13:18:26;14.30;49.30
11772;DHT22;12556;55.748;13.194;2023-04-03T13:20:55;13.80;49.80
11772;DHT22;12556;55.748;13.194;2023-04-03T13:23:23;13.80;49.80
11772;DHT22;12556;55.748;13.194;2023-04-03T13:25:51;14.10;48.30
11772;DHT22;12556;55.748;13.194;2023-04-03T13:28:20;14.10;48.90
11772;DHT22;12556;55.748;13.194;2023-04-03T13:30:59;14.10;48.20
11772;DHT22;12556;55.748;13.194;2023-04-03T13:33:30;14.00;48.40
11772;DHT22;12556;55.748;13.194;2023-04-03T13:36:03;14.20;49.20
11772;DHT22;12556;55.748;13.194;2023-04-03T13:38:32;14.20;49.10
11772;DHT22;12556;55.748;13.194;2023-04-03T13:41:01;13.90;48.80
11772;DHT22;12556;55.748;13.194;2023-04-03T13:43:30;13.80;48.80
11772;DHT22;12556;55.748;13.194;2023-04-03T13:46:03;13.80;48.30
11772;DHT22;12556;55.748;13.194;2023-04-03T13:48:39;13.70;48.20
11772;DHT22;12556;55.748;13.194;2023-04-03T13:51:17;13.60;48.50
11772;DHT22;12556;55.748;13.194;2023-04-03T13:53:48;13.40;48.40
11772;DHT22;12556;55.748;13.194;2023-04-03T13:56:23;13.40;48.70
11772;DHT22;12556;55.748;13.194;2023-04-03T13:59:01;13.50;48.50
11772;DHT22;12556;55.748;13.194;2023-04-03T14:01:42;13.40;48.40
11772;DHT22;12556;55.748;13.194;2023-04-03T14:04:16;13.30;48.40
11772;DHT22;12556;55.748;13.194;2023-04-03T14:06:43;13.00;48.80
11772;DHT22;12556;55.748;13.194;2023-04-03T14:09:10;12.70;48.80
11772;DHT22;12556;55.748;13.194;2023-04-03T14:11:37;12.70;48.80
11772;DHT22;12556;55.748;13.194;2023-04-03T14:14:10;12.60;48.70
11772;DHT22;12556;55.748;13.194;2023-04-03T14:16:41;12.40;48.40
11772;DHT22;12556;55.748;13.194;2023-04-03T14:19:17;12.10;48.10
11772;DHT22;12556;55.748;13.194;2023-04-03T14:21:44;11.80;48.10
11772;DHT22;12556;55.748;13.194;2023-04-03T14:24:11;11.50;48.00
11772;DHT22;12556;55.748;13.194;2023-04-03T14:26:38;11.20;48.20
11772;DHT22;12556;55.748;13.194;2023-04-03T14:29:06;10.90;48.60
11772;DHT22;12556;55.748;13.194;2023-04-03T14:31:33;10.80;49.20
11772;DHT22;12556;55.748;13.194;2023-04-03T14:34:02;10.90;49.40
11772;DHT22;12556;55.748;13.194;2023-04-03T14:36:29;10.90;49.30
11772;DHT22;12556;55.748;13.194;2023-04-03T14:38:57;10.70;49.00
11772;DHT22;12556;55.748;13.194;2023-04-03T14:41:26;10.50;49.20
11772;DHT22;12556;55.748;13.194;2023-04-03T14:43:53;10.40;49.10
11772;DHT22;12556;55.748;13.194;2023-04-03T14:46:23;10.20;49.40
11772;DHT22;12556;55.748;13.194;2023-04-03T14:48:50;9.90;49.80
11772;DHT22;12556;55.748;13.194;2023-04-03T14:51:18;9.70;50.70
11772;DHT22;12556;55.748;13.194;2023-04-03T14:53:45;9.80;50.20
11772;DHT22;12556;55.748;13.194;2023-04-03T14:56:13;9.80;50.60
11772;DHT22;12556;55.748;13.194;2023-04-03T14:58:41;9.80;50.80
11772;DHT22;12556;55.748;13.194;2023-04-03T15:01:10;9.80;51.10
11772;DHT22;12556;55.748;13.194;2023-04-03T15:03:37;9.70;50.80
11772;DHT22;12556;55.748;13.194;2023-04-03T15:06:04;9.50;50.80
11772;DHT22;12556;55.748;13.194;2023-04-03T15:08:33;9.30;50.90
11772;DHT22;12556;55.748;13.194;2023-04-03T15:11:00;9.00;50.70
11772;DHT22;12556;55.748;13.194;2023-04-03T15:13:27;8.80;50.90
11772;DHT22;12556;55.748;13.194;2023-04-03T15:15:54;8.70;51.10
11772;DHT22;12556;55.748;13.194;2023-04-03T15:18:22;8.60;52.20
11772;DHT22;12556;55.748;13.194;2023-04-03T15:20:51;8.60;53.90
11772;DHT22;12556;55.748;13.194;2023-04-03T15:23:19;8.50;55.00
11772;DHT22;12556;55.748;13.194;2023-04-03T15:25:48;8.40;55.70
11772;DHT22;12556;55.748;13.194;2023-04-03T15:28:29;8.30;56.40
11772;DHT22;12556;55.748;13.194;2023-04-03T15:30:57;8.30;57.00
11772;DHT22;12556;55.748;13.194;2023-04-03T15:33:24;8.30;57.20
11772;DHT22;12556;55.748;13.194;2023-04-03T15:35:51;8.10;57.20
11772;DHT22;12556;55.748;13.194;2023-04-03T15:38:18;8.10;57.70
11772;DHT22;12556;55.748;13.194;2023-04-03T15:40:46;8.00;57.90
11772;DHT22;12556;55.748;13.194;2023-04-03T15:43:14;7.90;58.20
11772;DHT22;12556;55.748;13.194;2023-04-03T15:45:41;7.70;58.60
11772;DHT22;12556;55.748;13.194;2023-04-03T15:48:10;7.60;59.00
11772;DHT22;12556;55.748;13.194;2023-04-03T15:50:38;7.60;59.50
11772;DHT22;12556;55.748;13.194;2023-04-03T15:53:06;7.50;59.30
11772;DHT22;12556;55.748;13.194;2023-04-03T15:55:34;7.40;59.30
11772;DHT22;12556;55.748;13.194;2023-04-03T15:58:03;7.30;59.60